This is the latest recevied weather packets stored in our database for station/object SP8C-13. If no packets are shown the sender has not sent any weather packets the latest 1 day(s).
| Time | Temp. | Humidity | Pressure | Rain* | Wind** | Luminosity | Snow |
|---|---|---|---|---|---|---|---|
| 1778085819 | 23.33° C | 45% | 1006.9 hPa | - | - | - | - |
| 1778084019 | 23.33° C | 44% | 1006.8 hPa | - | - | - | - |
| 1778075018 | 27.78° C | 36% | 1006.8 hPa | - | - | - | - |
| 1778073218 | 27.78° C | 36% | 1006.8 hPa | - | - | - | - |
| 1778067817 | 28.33° C | 36% | 1006.8 hPa | - | - | - | - |
| 1778066017 | 27.22° C | 37% | 1007 hPa | - | - | - | - |
| 1778060616 | 26.11° C | 38% | 1007.1 hPa | - | - | - | - |
| 1778058816 | 25.56° C | 38% | 1007.1 hPa | - | - | - | - |
| 1778057016 | 25° C | 38% | 1007 hPa | - | - | - | - |
| 1778049821 | 22.78° C | 42% | 1007 hPa | - | - | - | - |
| 1778048021 | 20.56° C | 43% | 1006.9 hPa | - | - | - | - |
| 1778046221 | 20° C | 43% | 1007 hPa | - | - | - | - |
| 1778044421 | 20.56° C | 41% | 1007.2 hPa | - | - | - | - |
| 1778040820 | 15.56° C | 46% | 1007.2 hPa | - | - | - | - |
| 1778037220 | 10° C | 59% | 1007.4 hPa | - | - | - | - |
| 1778035420 | 10° C | 61% | 1007.5 hPa | - | - | - | - |
| 1778033620 | 11.11° C | 58% | 1007.4 hPa | - | - | - | - |
| 1778031820 | 11.11° C | 59% | 1007.5 hPa | - | - | - | - |
| 1778030020 | 11.11° C | 59% | 1007.5 hPa | - | - | - | - |
| 1778028219 | 11.67° C | 55% | 1007.6 hPa | - | - | - | - |
| 1778019219 | 14.44° C | 47% | 1007.8 hPa | - | - | - | - |
| 1778017419 | 16.67° C | 42% | 1007.8 hPa | - | - | - | - |
| 1778010218 | 19.44° C | 38% | 1007.6 hPa | - | - | - | - |
| 1778008418 | 20° C | 37% | 1007.7 hPa | - | - | - | - |
* Rain since midnight (hover to see other rain measurements)
** Current wind speed in m/s (hover to see current wind gust speed)